WetterOnline ( https://www.wetteronline.de )

Wetter aktuell Jöhstadt

Aktuelles Wetter: Fichtelberg (1215m)

6-stündlich | Neueste Meldungen
Ortszeit Temperatur Wetter
Mi, 19.06. 8:00 13.3° C bedeckt
Mi, 19.06. 2:00 16.1° C wolkig
Di, 18.06. 20:00 20.0° C leicht bewölkt
Di, 18.06. 14:00 19.7° C wolkig
Di, 18.06. 8:00 12.9° C leicht bewölkt
Di, 18.06. 2:00 10.9° C fast wolkenlos
Mo, 17.06. 20:00 15.0° C bewölkt
Mo, 17.06. 14:00 14.5° C bewölkt
Ortszeit Temperatur Wetter
Mi, 19.06. 13:10 15.5° C bedeckt
Mi, 19.06. 13:00 15.1° C bedeckt
Mi, 19.06. 12:50 15.1° C bedeckt
Mi, 19.06. 12:40 15.2° C bedeckt
Mi, 19.06. 12:30 15.6° C bedeckt
Mi, 19.06. 12:20 15.6° C bedeckt
Mi, 19.06. 12:00 16.9° C bewölkt
Mi, 19.06. 11:30 17.3° C bewölkt
Mi, 19.06. 11:00 15.8° C bewölkt
Mi, 19.06. 10:30 15.5° C bewölkt
Ortszeit Relative Feuchte Sichtweite
Mi, 19.06. 8:00 92% 65 km
Mi, 19.06. 2:00 71% >70 km
Di, 18.06. 20:00 60% >70 km
Di, 18.06. 14:00 62% >70 km
Di, 18.06. 8:00 88% >70 km
Di, 18.06. 2:00 90% >70 km
Mo, 17.06. 20:00 72% >70 km
Mo, 17.06. 14:00 77% >70 km
Ortszeit Relative Feuchte Sichtweite
Mi, 19.06. 13:10 90% -
Mi, 19.06. 13:00 92% 17 km
Mi, 19.06. 12:50 92% -
Mi, 19.06. 12:40 91% -
Mi, 19.06. 12:30 90% 18 km
Mi, 19.06. 12:20 90% -
Mi, 19.06. 12:00 85% 55 km
Mi, 19.06. 11:30 84% 40 km
Mi, 19.06. 11:00 91% 28 km
Mi, 19.06. 10:30 90% 30 km
Ortszeit Niederschlagsmenge Niederschlagsart
Mi, 19.06. 8:00 1 l/m2 in 12 Std. Regen
Mi, 19.06. 2:00 0.1 l/m2 in 6 Std. Regen
Di, 18.06. 20:00 0.0 l/m2 in 12 Std. -
Di, 18.06. 14:00 0.0 l/m2 in 6 Std. -
Di, 18.06. 8:00 0.1 l/m2 in 12 Std. -
Di, 18.06. 2:00 0.1 l/m2 in 6 Std. Regen
Mo, 17.06. 20:00 0.1 l/m2 in 12 Std. Regen
Mo, 17.06. 14:00 0.1 l/m2 in 6 Std. Regen
Ortszeit Niederschlagsmenge Niederschlagsart
Mi, 19.06. 13:10 keine Meldung -
Mi, 19.06. 13:00 <0.05 l/m2 in 1 Std. Regen
Mi, 19.06. 12:50 keine Meldung -
Mi, 19.06. 12:40 keine Meldung -
Mi, 19.06. 12:30 <0.05 l/m2 in 30 Min Schneeregen
Mi, 19.06. 12:20 keine Meldung -
Mi, 19.06. 12:00 <0.05 l/m2 in 1 Std. -
Mi, 19.06. 11:30 0.0 l/m2 in 30 Min -
Mi, 19.06. 11:00 0.0 l/m2 in 1 Std. -
Mi, 19.06. 10:30 0.0 l/m2 in 30 Min -
Ortszeit Stärke Spitze Richtung
km/h Bft. km/h Grad Sektor
Mi, 19.06. 8:00 44 6 80 230° SW
Mi, 19.06. 2:00 44 6 63 260° W
Di, 18.06. 20:00 26 4 41 180° S
Di, 18.06. 14:00 22 4 40 190° S
Di, 18.06. 8:00 20 4 48 240° SW
Di, 18.06. 2:00 28 4 41 250° W
Mo, 17.06. 20:00 22 4 58 260° W
Mo, 17.06. 14:00 32 5 65 240° SW
Ortszeit Stärke Spitze Richtung
km/h Bft. km/h Grad Sektor
Mi, 19.06. 13:10 13 3 - 310° NW
Mi, 19.06. 13:00 14 3 25 320° NW
Mi, 19.06. 12:50 14 3 - 320° NW
Mi, 19.06. 12:40 14 3 - 330° NW
Mi, 19.06. 12:30 13 3 26 320° NW
Mi, 19.06. 12:20 13 3 - 320° NW
Mi, 19.06. 12:00 25 4 40 290° W
Mi, 19.06. 11:30 24 4 39 290° W
Mi, 19.06. 11:00 22 4 43 300° NW
Mi, 19.06. 10:30 28 4 43 300° NW
Ortszeit Untergrenze Bedeckung Gattung
total tief tief mittel hoch
Mi, 19.06. 8:00 2700 m 8/8 8/8 - - -
Mi, 19.06. 2:00 6300 m 7/8 1/8 - - -
Di, 18.06. 20:00 7500 m 5/8 0/8 - - -
Di, 18.06. 14:00 1050 m 6/8 5/8 - - -
Di, 18.06. 8:00 7500 m 7/8 0/8 - - -
Di, 18.06. 2:00 9000 m 2/8 0/8 - - -
Mo, 17.06. 20:00 1800 m 8/8 5/8 - - -
Mo, 17.06. 14:00 600 m 7/8 7/8 - - -
Ortszeit Bedeckungsgrad in Achtel und Wolkenuntergrenze
Mi, 19.06. 13:10 8
Mi, 19.06. 13:00 5(60m) 8(150m)
Mi, 19.06. 12:50 5(60m) 8(150m)
Mi, 19.06. 12:40 8
Mi, 19.06. 12:30 6(30m) 7(240m) 8(2700m)
Mi, 19.06. 12:20 6(30m) 7(240m) 8(2700m)
Mi, 19.06. 12:00 6(240m) 7(570m) 8(4500m)
Mi, 19.06. 11:30 7(210m) 8(4200m) 8(4500m)
Mi, 19.06. 11:00 6(120m) 6(3600m) 8(4200m)
Mi, 19.06. 10:30 4(90m) 8(3000m) 8(3600m)
Ortszeit Stationsdruck (hPa) Tendenz (hPa in 3 Std.)
Mi, 19.06. 8:00 879 + 0,6
Mi, 19.06. 2:00 878 - 0,6
Di, 18.06. 20:00 879 - 1,4
Di, 18.06. 14:00 882 - 0,3
Di, 18.06. 8:00 882 + 0,6
Di, 18.06. 2:00 881 + 0,4
Mo, 17.06. 20:00 880 + 0,4
Mo, 17.06. 14:00 879 + 0,8
Ortszeit Stationsdruck (hPa) Tendenz (hPa in 3 Std.)
Mi, 19.06. 13:10 880 keine Meldung
Mi, 19.06. 13:00 880 + 1,1
Mi, 19.06. 12:50 880 keine Meldung
Mi, 19.06. 12:40 880 keine Meldung
Mi, 19.06. 12:30 880 + 1,4
Mi, 19.06. 12:20 880 keine Meldung
Mi, 19.06. 12:00 880 + 1,5
Mi, 19.06. 11:30 880 + 1,4
Mi, 19.06. 11:00 879 + 0,7
Mi, 19.06. 10:30 879 + 0,9
Ortszeit Schneehöhe (cm)
Mi, 19.06. 8:00 0
Mi, 19.06. 2:00 0
Di, 18.06. 20:00 0
Di, 18.06. 14:00 0
Di, 18.06. 8:00 0
Di, 18.06. 2:00 0
Mo, 17.06. 20:00 0
Mo, 17.06. 14:00 0
Ortszeit Schneehöhe (cm)
Mi, 19.06. 13:10 -
Mi, 19.06. 13:00 0
Mi, 19.06. 12:50 0
Mi, 19.06. 12:40 -
Mi, 19.06. 12:30 0
Mi, 19.06. 12:20 0
Mi, 19.06. 12:00 0
Mi, 19.06. 11:30 0
Mi, 19.06. 11:00 0
Mi, 19.06. 10:30 0
Link zu dieser Seite / Seite empfehlen

Das Wetter in ...